sensor_id;sensor_type;location;lat;lon;timestamp;P1;durP1;ratioP1;P2;durP2;ratioP2
6306;SDS011;3186;54.062;9.962;2023-03-03T00:01:02;18.97;;;11.80;;
6306;SDS011;3186;54.062;9.962;2023-03-03T00:03:29;17.73;;;11.60;;
6306;SDS011;3186;54.062;9.962;2023-03-03T00:05:56;17.10;;;11.33;;
6306;SDS011;3186;54.062;9.962;2023-03-03T00:08:22;16.13;;;10.90;;
6306;SDS011;3186;54.062;9.962;2023-03-03T00:10:48;18.70;;;12.20;;
6306;SDS011;3186;54.062;9.962;2023-03-03T00:13:15;16.93;;;10.63;;
6306;SDS011;3186;54.062;9.962;2023-03-03T00:15:46;17.47;;;11.27;;
6306;SDS011;3186;54.062;9.962;2023-03-03T00:18:16;16.53;;;10.83;;
6306;SDS011;3186;54.062;9.962;2023-03-03T00:20:47;16.37;;;11.53;;
6306;SDS011;3186;54.062;9.962;2023-03-03T00:25:57;18.40;;;11.27;;
6306;SDS011;3186;54.062;9.962;2023-03-03T00:28:28;14.97;;;10.17;;
6306;SDS011;3186;54.062;9.962;2023-03-03T00:30:56;15.17;;;10.27;;
6306;SDS011;3186;54.062;9.962;2023-03-03T00:33:31;15.77;;;10.53;;
6306;SDS011;3186;54.062;9.962;2023-03-03T00:36:21;16.53;;;10.53;;
6306;SDS011;3186;54.062;9.962;2023-03-03T00:41:56;14.40;;;10.23;;
6306;SDS011;3186;54.062;9.962;2023-03-03T00:49:55;12.80;;;9.83;;
6306;SDS011;3186;54.062;9.962;2023-03-03T00:52:30;15.03;;;10.07;;
6306;SDS011;3186;54.062;9.962;2023-03-03T00:55:05;13.63;;;9.93;;
6306;SDS011;3186;54.062;9.962;2023-03-03T00:57:32;14.40;;;10.43;;
6306;SDS011;3186;54.062;9.962;2023-03-03T00:59:59;14.13;;;9.80;;
6306;SDS011;3186;54.062;9.962;2023-03-03T01:02:25;14.77;;;9.80;;
6306;SDS011;3186;54.062;9.962;2023-03-03T01:04:52;12.90;;;9.63;;
6306;SDS011;3186;54.062;9.962;2023-03-03T01:07:20;15.53;;;10.60;;
6306;SDS011;3186;54.062;9.962;2023-03-03T01:09:46;13.27;;;10.77;;
6306;SDS011;3186;54.062;9.962;2023-03-03T01:12:12;15.03;;;10.63;;
6306;SDS011;3186;54.062;9.962;2023-03-03T01:14:39;13.63;;;9.70;;
6306;SDS011;3186;54.062;9.962;2023-03-03T01:17:05;13.53;;;10.03;;
6306;SDS011;3186;54.062;9.962;2023-03-03T01:19:31;14.03;;;9.93;;
6306;SDS011;3186;54.062;9.962;2023-03-03T01:21:57;15.10;;;10.40;;
6306;SDS011;3186;54.062;9.962;2023-03-03T01:24:23;13.40;;;9.33;;
6306;SDS011;3186;54.062;9.962;2023-03-03T01:26:49;15.10;;;10.30;;
6306;SDS011;3186;54.062;9.962;2023-03-03T01:29:14;12.33;;;8.93;;
6306;SDS011;3186;54.062;9.962;2023-03-03T01:31:40;13.47;;;9.47;;
6306;SDS011;3186;54.062;9.962;2023-03-03T01:34:06;12.83;;;9.27;;
6306;SDS011;3186;54.062;9.962;2023-03-03T01:36:32;12.93;;;9.50;;
6306;SDS011;3186;54.062;9.962;2023-03-03T01:38:59;13.17;;;10.10;;
6306;SDS011;3186;54.062;9.962;2023-03-03T01:41:29;12.40;;;9.20;;
6306;SDS011;3186;54.062;9.962;2023-03-03T01:43:59;11.70;;;8.83;;
6306;SDS011;3186;54.062;9.962;2023-03-03T01:49:59;12.87;;;9.40;;
6306;SDS011;3186;54.062;9.962;2023-03-03T01:52:20;12.60;;;9.27;;
6306;SDS011;3186;54.062;9.962;2023-03-03T01:54:54;12.40;;;8.93;;
6306;SDS011;3186;54.062;9.962;2023-03-03T01:57:31;13.50;;;9.47;;
6306;SDS011;3186;54.062;9.962;2023-03-03T02:00:00;13.73;;;9.33;;
6306;SDS011;3186;54.062;9.962;2023-03-03T02:02:37;12.53;;;9.27;;
6306;SDS011;3186;54.062;9.962;2023-03-03T02:05:06;11.67;;;8.33;;
6306;SDS011;3186;54.062;9.962;2023-03-03T02:07:32;12.37;;;9.03;;
6306;SDS011;3186;54.062;9.962;2023-03-03T02:10:10;13.50;;;9.27;;
6306;SDS011;3186;54.062;9.962;2023-03-03T02:12:49;12.13;;;8.73;;
6306;SDS011;3186;54.062;9.962;2023-03-03T02:15:19;12.73;;;9.37;;
6306;SDS011;3186;54.062;9.962;2023-03-03T02:17:45;12.57;;;8.50;;
6306;SDS011;3186;54.062;9.962;2023-03-03T02:22:47;12.00;;;9.30;;
6306;SDS011;3186;54.062;9.962;2023-03-03T02:25:21;13.37;;;8.90;;
6306;SDS011;3186;54.062;9.962;2023-03-03T02:28:01;10.90;;;7.97;;
6306;SDS011;3186;54.062;9.962;2023-03-03T02:30:27;12.67;;;8.80;;
6306;SDS011;3186;54.062;9.962;2023-03-03T02:32:53;13.13;;;9.60;;
6306;SDS011;3186;54.062;9.962;2023-03-03T02:35:41;10.60;;;8.30;;
6306;SDS011;3186;54.062;9.962;2023-03-03T02:46:28;10.43;;;7.93;;
6306;SDS011;3186;54.062;9.962;2023-03-03T02:49:07;10.77;;;8.83;;
6306;SDS011;3186;54.062;9.962;2023-03-03T02:51:34;11.17;;;8.77;;
6306;SDS011;3186;54.062;9.962;2023-03-03T02:54:01;10.83;;;8.53;;
6306;SDS011;3186;54.062;9.962;2023-03-03T02:56:29;13.93;;;9.17;;
6306;SDS011;3186;54.062;9.962;2023-03-03T02:58:55;12.30;;;9.20;;
6306;SDS011;3186;54.062;9.962;2023-03-03T03:01:21;11.33;;;9.10;;
6306;SDS011;3186;54.062;9.962;2023-03-03T03:03:47;11.97;;;9.00;;
6306;SDS011;3186;54.062;9.962;2023-03-03T03:06:17;11.93;;;9.03;;
6306;SDS011;3186;54.062;9.962;2023-03-03T03:08:45;12.50;;;8.80;;
6306;SDS011;3186;54.062;9.962;2023-03-03T03:11:11;11.03;;;8.23;;
6306;SDS011;3186;54.062;9.962;2023-03-03T03:13:38;10.47;;;8.00;;
6306;SDS011;3186;54.062;9.962;2023-03-03T03:16:04;12.90;;;9.40;;
6306;SDS011;3186;54.062;9.962;2023-03-03T03:18:30;11.83;;;8.73;;
6306;SDS011;3186;54.062;9.962;2023-03-03T03:21:04;11.20;;;8.17;;
6306;SDS011;3186;54.062;9.962;2023-03-03T03:23:40;10.70;;;7.90;;
6306;SDS011;3186;54.062;9.962;2023-03-03T03:26:07;10.73;;;8.17;;
6306;SDS011;3186;54.062;9.962;2023-03-03T03:28:33;11.93;;;8.53;;
6306;SDS011;3186;54.062;9.962;2023-03-03T03:31:00;10.63;;;8.10;;
6306;SDS011;3186;54.062;9.962;2023-03-03T03:33:27;10.93;;;8.40;;
6306;SDS011;3186;54.062;9.962;2023-03-03T03:35:53;12.10;;;8.43;;
6306;SDS011;3186;54.062;9.962;2023-03-03T03:38:20;11.53;;;8.80;;
6306;SDS011;3186;54.062;9.962;2023-03-03T03:40:47;10.63;;;8.00;;
6306;SDS011;3186;54.062;9.962;2023-03-03T03:43:13;11.53;;;8.30;;
6306;SDS011;3186;54.062;9.962;2023-03-03T03:45:43;11.00;;;8.20;;
6306;SDS011;3186;54.062;9.962;2023-03-03T03:48:10;11.23;;;8.23;;
6306;SDS011;3186;54.062;9.962;2023-03-03T03:50:37;10.97;;;8.70;;
6306;SDS011;3186;54.062;9.962;2023-03-03T03:53:04;12.07;;;8.73;;
6306;SDS011;3186;54.062;9.962;2023-03-03T03:55:31;13.33;;;8.57;;
6306;SDS011;3186;54.062;9.962;2023-03-03T03:57:57;11.63;;;8.67;;
6306;SDS011;3186;54.062;9.962;2023-03-03T04:00:23;11.20;;;8.27;;
6306;SDS011;3186;54.062;9.962;2023-03-03T04:02:54;10.20;;;8.00;;
6306;SDS011;3186;54.062;9.962;2023-03-03T04:05:21;10.50;;;7.87;;
6306;SDS011;3186;54.062;9.962;2023-03-03T04:07:48;10.37;;;8.57;;
6306;SDS011;3186;54.062;9.962;2023-03-03T04:10:15;10.13;;;7.67;;
6306;SDS011;3186;54.062;9.962;2023-03-03T04:12:43;10.73;;;7.57;;
6306;SDS011;3186;54.062;9.962;2023-03-03T04:15:12;11.07;;;8.50;;
6306;SDS011;3186;54.062;9.962;2023-03-03T04:17:39;9.80;;;7.70;;
6306;SDS011;3186;54.062;9.962;2023-03-03T04:20:07;11.73;;;8.57;;
6306;SDS011;3186;54.062;9.962;2023-03-03T04:22:37;10.03;;;7.60;;
6306;SDS011;3186;54.062;9.962;2023-03-03T04:25:03;10.90;;;8.20;;
6306;SDS011;3186;54.062;9.962;2023-03-03T04:27:35;10.37;;;7.70;;
6306;SDS011;3186;54.062;9.962;2023-03-03T04:30:02;11.27;;;8.10;;
6306;SDS011;3186;54.062;9.962;2023-03-03T04:32:30;11.03;;;8.27;;
6306;SDS011;3186;54.062;9.962;2023-03-03T04:34:58;12.10;;;8.60;;
6306;SDS011;3186;54.062;9.962;2023-03-03T04:37:25;9.97;;;7.63;;
6306;SDS011;3186;54.062;9.962;2023-03-03T04:39:51;11.77;;;8.47;;
6306;SDS011;3186;54.062;9.962;2023-03-03T04:42:17;11.10;;;8.47;;
6306;SDS011;3186;54.062;9.962;2023-03-03T04:44:43;10.07;;;7.60;;
6306;SDS011;3186;54.062;9.962;2023-03-03T04:47:09;10.63;;;8.03;;
6306;SDS011;3186;54.062;9.962;2023-03-03T04:49:36;10.07;;;7.93;;
6306;SDS011;3186;54.062;9.962;2023-03-03T04:52:03;10.67;;;8.33;;
6306;SDS011;3186;54.062;9.962;2023-03-03T04:54:29;10.93;;;8.47;;
6306;SDS011;3186;54.062;9.962;2023-03-03T04:56:55;10.43;;;7.80;;
6306;SDS011;3186;54.062;9.962;2023-03-03T04:59:21;11.80;;;8.67;;
6306;SDS011;3186;54.062;9.962;2023-03-03T05:01:48;10.63;;;8.00;;
6306;SDS011;3186;54.062;9.962;2023-03-03T05:04:15;10.70;;;8.27;;
6306;SDS011;3186;54.062;9.962;2023-03-03T05:06:41;10.43;;;8.10;;
6306;SDS011;3186;54.062;9.962;2023-03-03T05:09:07;10.87;;;8.97;;
6306;SDS011;3186;54.062;9.962;2023-03-03T05:11:33;11.17;;;8.70;;
6306;SDS011;3186;54.062;9.962;2023-03-03T05:13:59;10.87;;;7.87;;
6306;SDS011;3186;54.062;9.962;2023-03-03T05:16:27;9.47;;;8.17;;
6306;SDS011;3186;54.062;9.962;2023-03-03T05:18:53;11.20;;;8.13;;
6306;SDS011;3186;54.062;9.962;2023-03-03T05:21:19;9.43;;;7.83;;
6306;SDS011;3186;54.062;9.962;2023-03-03T05:23:45;9.00;;;7.40;;
6306;SDS011;3186;54.062;9.962;2023-03-03T05:26:10;10.67;;;8.03;;
6306;SDS011;3186;54.062;9.962;2023-03-03T05:28:36;10.00;;;7.40;;
6306;SDS011;3186;54.062;9.962;2023-03-03T05:31:02;11.17;;;7.77;;
6306;SDS011;3186;54.062;9.962;2023-03-03T05:33:28;10.23;;;7.57;;
6306;SDS011;3186;54.062;9.962;2023-03-03T05:35:55;11.53;;;7.87;;
6306;SDS011;3186;54.062;9.962;2023-03-03T05:38:22;10.70;;;7.67;;
6306;SDS011;3186;54.062;9.962;2023-03-03T05:40:48;9.37;;;7.70;;
6306;SDS011;3186;54.062;9.962;2023-03-03T05:43:15;9.30;;;7.23;;
6306;SDS011;3186;54.062;9.962;2023-03-03T05:45:41;9.30;;;7.13;;
6306;SDS011;3186;54.062;9.962;2023-03-03T05:48:06;10.60;;;8.03;;
6306;SDS011;3186;54.062;9.962;2023-03-03T05:50:34;9.83;;;7.83;;
6306;SDS011;3186;54.062;9.962;2023-03-03T05:53:01;10.63;;;7.37;;
6306;SDS011;3186;54.062;9.962;2023-03-03T05:55:27;10.73;;;7.77;;
6306;SDS011;3186;54.062;9.962;2023-03-03T05:57:53;10.40;;;7.80;;
6306;SDS011;3186;54.062;9.962;2023-03-03T06:00:19;11.47;;;7.80;;
6306;SDS011;3186;54.062;9.962;2023-03-03T06:02:45;10.53;;;7.50;;
6306;SDS011;3186;54.062;9.962;2023-03-03T06:05:11;9.63;;;7.00;;
6306;SDS011;3186;54.062;9.962;2023-03-03T06:07:37;12.00;;;7.83;;
6306;SDS011;3186;54.062;9.962;2023-03-03T06:10:04;11.43;;;8.20;;
6306;SDS011;3186;54.062;9.962;2023-03-03T06:12:33;11.53;;;8.13;;
6306;SDS011;3186;54.062;9.962;2023-03-03T06:14:58;11.37;;;8.17;;
6306;SDS011;3186;54.062;9.962;2023-03-03T06:17:24;11.53;;;8.37;;
6306;SDS011;3186;54.062;9.962;2023-03-03T06:19:50;11.00;;;8.17;;
6306;SDS011;3186;54.062;9.962;2023-03-03T06:22:16;11.60;;;7.93;;
6306;SDS011;3186;54.062;9.962;2023-03-03T06:24:42;12.00;;;8.30;;
6306;SDS011;3186;54.062;9.962;2023-03-03T06:27:10;14.10;;;8.83;;
6306;SDS011;3186;54.062;9.962;2023-03-03T06:29:43;10.20;;;7.50;;
6306;SDS011;3186;54.062;9.962;2023-03-03T06:32:09;10.97;;;7.80;;
6306;SDS011;3186;54.062;9.962;2023-03-03T06:34:36;10.73;;;8.00;;
6306;SDS011;3186;54.062;9.962;2023-03-03T06:37:02;11.97;;;8.93;;
6306;SDS011;3186;54.062;9.962;2023-03-03T06:39:28;11.03;;;7.97;;
6306;SDS011;3186;54.062;9.962;2023-03-03T06:41:55;12.90;;;8.63;;
6306;SDS011;3186;54.062;9.962;2023-03-03T06:44:20;11.47;;;8.43;;
6306;SDS011;3186;54.062;9.962;2023-03-03T06:46:46;12.30;;;8.33;;
6306;SDS011;3186;54.062;9.962;2023-03-03T06:49:12;12.90;;;8.30;;
6306;SDS011;3186;54.062;9.962;2023-03-03T06:51:38;13.03;;;8.23;;
6306;SDS011;3186;54.062;9.962;2023-03-03T06:54:12;11.20;;;8.63;;
6306;SDS011;3186;54.062;9.962;2023-03-03T06:56:38;11.17;;;7.60;;
6306;SDS011;3186;54.062;9.962;2023-03-03T06:59:16;12.20;;;8.33;;
6306;SDS011;3186;54.062;9.962;2023-03-03T07:01:45;12.53;;;8.57;;
6306;SDS011;3186;54.062;9.962;2023-03-03T07:04:21;12.87;;;8.77;;
6306;SDS011;3186;54.062;9.962;2023-03-03T07:06:53;18.60;;;9.20;;
6306;SDS011;3186;54.062;9.962;2023-03-03T07:09:21;15.43;;;8.40;;
6306;SDS011;3186;54.062;9.962;2023-03-03T07:11:55;11.63;;;8.27;;
6306;SDS011;3186;54.062;9.962;2023-03-03T07:14:27;11.23;;;7.87;;
6306;SDS011;3186;54.062;9.962;2023-03-03T07:16:55;14.27;;;8.53;;
6306;SDS011;3186;54.062;9.962;2023-03-03T07:19:29;11.97;;;8.00;;
6306;SDS011;3186;54.062;9.962;2023-03-03T07:21:58;11.50;;;8.00;;
6306;SDS011;3186;54.062;9.962;2023-03-03T07:24:46;12.13;;;8.90;;
6306;SDS011;3186;54.062;9.962;2023-03-03T07:27:18;12.60;;;8.10;;
6306;SDS011;3186;54.062;9.962;2023-03-03T07:29:52;12.70;;;8.67;;
6306;SDS011;3186;54.062;9.962;2023-03-03T07:34:58;11.60;;;8.40;;
6306;SDS011;3186;54.062;9.962;2023-03-03T07:40:00;11.70;;;8.23;;
6306;SDS011;3186;54.062;9.962;2023-03-03T07:43:15;10.60;;;7.63;;
6306;SDS011;3186;54.062;9.962;2023-03-03T07:46:16;11.00;;;8.00;;
6306;SDS011;3186;54.062;9.962;2023-03-03T07:48:59;14.83;;;9.30;;
6306;SDS011;3186;54.062;9.962;2023-03-03T07:51:44;11.93;;;9.07;;
6306;SDS011;3186;54.062;9.962;2023-03-03T07:59:50;14.87;;;8.60;;
6306;SDS011;3186;54.062;9.962;2023-03-03T08:02:35;10.70;;;7.97;;
6306;SDS011;3186;54.062;9.962;2023-03-03T08:05:23;12.30;;;8.67;;
6306;SDS011;3186;54.062;9.962;2023-03-03T08:07:54;12.30;;;7.77;;
6306;SDS011;3186;54.062;9.962;2023-03-03T08:10:48;13.80;;;8.73;;
6306;SDS011;3186;54.062;9.962;2023-03-03T08:15:45;14.77;;;8.80;;
6306;SDS011;3186;54.062;9.962;2023-03-03T08:20:58;14.17;;;7.90;;
6306;SDS011;3186;54.062;9.962;2023-03-03T08:23:26;10.77;;;7.17;;
6306;SDS011;3186;54.062;9.962;2023-03-03T08:25:52;13.73;;;7.90;;
6306;SDS011;3186;54.062;9.962;2023-03-03T08:28:18;12.47;;;7.67;;
6306;SDS011;3186;54.062;9.962;2023-03-03T08:30:45;8.90;;;6.70;;
6306;SDS011;3186;54.062;9.962;2023-03-03T08:33:12;11.17;;;7.43;;
6306;SDS011;3186;54.062;9.962;2023-03-03T08:35:38;12.13;;;7.27;;
6306;SDS011;3186;54.062;9.962;2023-03-03T08:38:05;9.20;;;6.50;;
6306;SDS011;3186;54.062;9.962;2023-03-03T08:40:31;11.23;;;6.83;;
6306;SDS011;3186;54.062;9.962;2023-03-03T08:42:58;11.13;;;6.57;;
6306;SDS011;3186;54.062;9.962;2023-03-03T08:45:24;18.17;;;7.17;;
6306;SDS011;3186;54.062;9.962;2023-03-03T08:47:50;9.97;;;6.07;;
6306;SDS011;3186;54.062;9.962;2023-03-03T08:50:16;8.40;;;6.17;;
6306;SDS011;3186;54.062;9.962;2023-03-03T08:52:43;13.70;;;8.63;;
6306;SDS011;3186;54.062;9.962;2023-03-03T08:55:09;12.83;;;7.47;;
6306;SDS011;3186;54.062;9.962;2023-03-03T08:57:35;11.40;;;7.60;;
6306;SDS011;3186;54.062;9.962;2023-03-03T09:00:03;12.20;;;7.97;;
6306;SDS011;3186;54.062;9.962;2023-03-03T09:02:34;12.90;;;8.33;;
6306;SDS011;3186;54.062;9.962;2023-03-03T09:05:00;16.17;;;8.53;;
6306;SDS011;3186;54.062;9.962;2023-03-03T09:07:26;13.60;;;8.03;;
6306;SDS011;3186;54.062;9.962;2023-03-03T09:09:52;8.23;;;6.63;;
6306;SDS011;3186;54.062;9.962;2023-03-03T09:12:26;8.63;;;6.57;;
6306;SDS011;3186;54.062;9.962;2023-03-03T09:14:59;17.60;;;9.57;;
6306;SDS011;3186;54.062;9.962;2023-03-03T09:17:36;12.63;;;7.70;;
6306;SDS011;3186;54.062;9.962;2023-03-03T09:20:26;16.40;;;9.53;;
6306;SDS011;3186;54.062;9.962;2023-03-03T09:25:48;33.40;;;18.63;;
6306;SDS011;3186;54.062;9.962;2023-03-03T09:28:32;26.40;;;15.33;;
6306;SDS011;3186;54.062;9.962;2023-03-03T09:31:00;18.10;;;10.97;;
6306;SDS011;3186;54.062;9.962;2023-03-03T09:33:28;22.60;;;10.90;;
6306;SDS011;3186;54.062;9.962;2023-03-03T09:36:10;17.57;;;9.40;;
6306;SDS011;3186;54.062;9.962;2023-03-03T09:38:45;12.53;;;8.73;;
6306;SDS011;3186;54.062;9.962;2023-03-03T09:46:35;16.60;;;9.20;;
6306;SDS011;3186;54.062;9.962;2023-03-03T09:51:46;11.13;;;7.77;;
6306;SDS011;3186;54.062;9.962;2023-03-03T10:07:25;12.57;;;8.50;;
6306;SDS011;3186;54.062;9.962;2023-03-03T10:12:53;14.10;;;8.33;;
6306;SDS011;3186;54.062;9.962;2023-03-03T10:18:38;10.73;;;7.37;;
6306;SDS011;3186;54.062;9.962;2023-03-03T10:24:28;10.67;;;7.77;;
6306;SDS011;3186;54.062;9.962;2023-03-03T10:34:58;11.07;;;7.37;;
6306;SDS011;3186;54.062;9.962;2023-03-03T11:37:10;25.87;;;14.03;;
6306;SDS011;3186;54.062;9.962;2023-03-03T11:39:43;26.00;;;13.67;;
6306;SDS011;3186;54.062;9.962;2023-03-03T11:42:24;26.73;;;14.57;;
6306;SDS011;3186;54.062;9.962;2023-03-03T11:44:59;26.17;;;12.40;;
6306;SDS011;3186;54.062;9.962;2023-03-03T11:47:54;25.63;;;12.83;;
6306;SDS011;3186;54.062;9.962;2023-03-03T11:50:25;21.43;;;11.77;;
6306;SDS011;3186;54.062;9.962;2023-03-03T11:55:40;20.90;;;10.70;;
6306;SDS011;3186;54.062;9.962;2023-03-03T12:09:06;17.80;;;9.57;;
6306;SDS011;3186;54.062;9.962;2023-03-03T12:14:23;18.33;;;8.53;;
6306;SDS011;3186;54.062;9.962;2023-03-03T12:17:02;14.70;;;8.00;;
6306;SDS011;3186;54.062;9.962;2023-03-03T12:38:45;11.80;;;6.07;;
6306;SDS011;3186;54.062;9.962;2023-03-03T12:41:26;7.17;;;5.00;;
6306;SDS011;3186;54.062;9.962;2023-03-03T12:47:02;9.43;;;5.10;;
6306;SDS011;3186;54.062;9.962;2023-03-03T12:49:55;10.10;;;4.87;;
6306;SDS011;3186;54.062;9.962;2023-03-03T12:58:06;8.00;;;4.53;;
6306;SDS011;3186;54.062;9.962;2023-03-03T13:06:31;11.20;;;3.47;;
6306;SDS011;3186;54.062;9.962;2023-03-03T13:12:21;10.80;;;2.73;;
6306;SDS011;3186;54.062;9.962;2023-03-03T13:15:11;10.10;;;2.60;;
6306;SDS011;3186;54.062;9.962;2023-03-03T13:20:21;11.03;;;2.70;;
6306;SDS011;3186;54.062;9.962;2023-03-03T13:23:04;10.00;;;2.50;;
6306;SDS011;3186;54.062;9.962;2023-03-03T13:25:49;7.90;;;2.73;;
6306;SDS011;3186;54.062;9.962;2023-03-03T13:30:49;8.13;;;2.40;;
6306;SDS011;3186;54.062;9.962;2023-03-03T13:33:27;8.67;;;2.43;;
6306;SDS011;3186;54.062;9.962;2023-03-03T13:36:01;12.70;;;2.33;;
6306;SDS011;3186;54.062;9.962;2023-03-03T13:38:39;8.50;;;2.33;;
6306;SDS011;3186;54.062;9.962;2023-03-03T13:43:50;10.67;;;2.70;;
6306;SDS011;3186;54.062;9.962;2023-03-03T13:52:02;11.80;;;2.60;;
6306;SDS011;3186;54.062;9.962;2023-03-03T14:10:31;9.53;;;3.30;;
6306;SDS011;3186;54.062;9.962;2023-03-03T14:13:14;11.63;;;3.30;;
6306;SDS011;3186;54.062;9.962;2023-03-03T14:15:54;18.20;;;3.23;;
6306;SDS011;3186;54.062;9.962;2023-03-03T14:24:17;10.60;;;2.93;;
6306;SDS011;3186;54.062;9.962;2023-03-03T14:26:46;9.00;;;2.73;;
6306;SDS011;3186;54.062;9.962;2023-03-03T14:31:55;8.00;;;3.53;;
6306;SDS011;3186;54.062;9.962;2023-03-03T14:36:51;13.87;;;4.43;;
6306;SDS011;3186;54.062;9.962;2023-03-03T14:39:32;17.03;;;4.10;;
6306;SDS011;3186;54.062;9.962;2023-03-03T14:44:55;16.97;;;3.90;;
6306;SDS011;3186;54.062;9.962;2023-03-03T14:47:26;22.53;;;5.53;;
6306;SDS011;3186;54.062;9.962;2023-03-03T14:49:54;21.17;;;7.23;;
6306;SDS011;3186;54.062;9.962;2023-03-03T14:52:25;19.93;;;6.80;;
6306;SDS011;3186;54.062;9.962;2023-03-03T14:54:57;23.20;;;5.50;;
6306;SDS011;3186;54.062;9.962;2023-03-03T15:05:47;12.37;;;3.80;;
6306;SDS011;3186;54.062;9.962;2023-03-03T15:08:29;21.23;;;5.33;;
6306;SDS011;3186;54.062;9.962;2023-03-03T15:11:10;22.30;;;4.57;;
6306;SDS011;3186;54.062;9.962;2023-03-03T15:13:43;17.40;;;4.97;;
6306;SDS011;3186;54.062;9.962;2023-03-03T15:16:10;16.00;;;4.43;;
6306;SDS011;3186;54.062;9.962;2023-03-03T15:21:35;16.43;;;4.50;;
6306;SDS011;3186;54.062;9.962;2023-03-03T15:24:22;22.17;;;4.17;;
6306;SDS011;3186;54.062;9.962;2023-03-03T15:27:20;19.20;;;4.20;;
6306;SDS011;3186;54.062;9.962;2023-03-03T15:32:46;23.87;;;4.33;;
6306;SDS011;3186;54.062;9.962;2023-03-03T15:38:07;14.70;;;3.97;;
6306;SDS011;3186;54.062;9.962;2023-03-03T15:40:49;17.33;;;3.83;;
6306;SDS011;3186;54.062;9.962;2023-03-03T15:43:36;18.57;;;4.20;;
6306;SDS011;3186;54.062;9.962;2023-03-03T15:58:14;16.63;;;4.57;;
6306;SDS011;3186;54.062;9.962;2023-03-03T16:00:32;23.33;;;5.63;;
6306;SDS011;3186;54.062;9.962;2023-03-03T16:03:04;22.47;;;5.20;;
6306;SDS011;3186;54.062;9.962;2023-03-03T16:06:00;21.53;;;4.43;;
6306;SDS011;3186;54.062;9.962;2023-03-03T16:08:55;23.00;;;4.80;;
6306;SDS011;3186;54.062;9.962;2023-03-03T16:12:20;22.70;;;5.10;;
6306;SDS011;3186;54.062;9.962;2023-03-03T16:28:49;20.63;;;4.40;;
6306;SDS011;3186;54.062;9.962;2023-03-03T16:34:31;16.63;;;4.40;;
6306;SDS011;3186;54.062;9.962;2023-03-03T16:37:33;25.77;;;5.57;;
6306;SDS011;3186;54.062;9.962;2023-03-03T16:40:08;21.87;;;5.10;;
6306;SDS011;3186;54.062;9.962;2023-03-03T16:42:58;20.37;;;4.67;;
6306;SDS011;3186;54.062;9.962;2023-03-03T16:56:59;19.77;;;4.30;;
6306;SDS011;3186;54.062;9.962;2023-03-03T17:05:26;21.97;;;5.13;;
6306;SDS011;3186;54.062;9.962;2023-03-03T17:11:21;21.53;;;4.40;;
6306;SDS011;3186;54.062;9.962;2023-03-03T17:14:15;18.90;;;4.40;;
6306;SDS011;3186;54.062;9.962;2023-03-03T17:25:15;24.73;;;5.43;;
6306;SDS011;3186;54.062;9.962;2023-03-03T17:35:49;31.43;;;6.37;;
6306;SDS011;3186;54.062;9.962;2023-03-03T18:03:06;23.70;;;5.07;;
6306;SDS011;3186;54.062;9.962;2023-03-03T18:11:07;22.33;;;5.93;;
6306;SDS011;3186;54.062;9.962;2023-03-03T18:25:21;22.53;;;4.53;;
6306;SDS011;3186;54.062;9.962;2023-03-03T18:29:03;18.00;;;4.67;;
6306;SDS011;3186;54.062;9.962;2023-03-03T18:34:28;32.13;;;6.60;;
6306;SDS011;3186;54.062;9.962;2023-03-03T18:37:00;23.40;;;5.27;;
6306;SDS011;3186;54.062;9.962;2023-03-03T18:39:37;28.73;;;5.13;;
6306;SDS011;3186;54.062;9.962;2023-03-03T18:44:47;24.70;;;5.80;;
6306;SDS011;3186;54.062;9.962;2023-03-03T18:47:13;16.83;;;5.33;;
6306;SDS011;3186;54.062;9.962;2023-03-03T18:52:38;19.13;;;4.83;;
6306;SDS011;3186;54.062;9.962;2023-03-03T18:55:53;21.23;;;5.00;;
6306;SDS011;3186;54.062;9.962;2023-03-03T18:58:32;20.63;;;4.33;;
6306;SDS011;3186;54.062;9.962;2023-03-03T19:03:36;20.90;;;4.27;;
6306;SDS011;3186;54.062;9.962;2023-03-03T19:06:52;21.23;;;4.63;;
6306;SDS011;3186;54.062;9.962;2023-03-03T19:09:18;23.10;;;4.97;;
6306;SDS011;3186;54.062;9.962;2023-03-03T19:12:07;22.83;;;5.13;;
6306;SDS011;3186;54.062;9.962;2023-03-03T19:14:38;26.57;;;6.17;;
6306;SDS011;3186;54.062;9.962;2023-03-03T19:22:32;15.80;;;4.60;;
6306;SDS011;3186;54.062;9.962;2023-03-03T19:25:22;22.87;;;5.30;;
6306;SDS011;3186;54.062;9.962;2023-03-03T19:39:00;23.23;;;5.40;;
6306;SDS011;3186;54.062;9.962;2023-03-03T19:44:35;25.57;;;6.03;;
6306;SDS011;3186;54.062;9.962;2023-03-03T19:58:55;23.60;;;5.57;;
6306;SDS011;3186;54.062;9.962;2023-03-03T20:06:54;25.17;;;5.60;;
6306;SDS011;3186;54.062;9.962;2023-03-03T20:20:58;27.13;;;5.17;;
6306;SDS011;3186;54.062;9.962;2023-03-03T20:23:52;30.80;;;6.03;;
6306;SDS011;3186;54.062;9.962;2023-03-03T20:28:59;21.17;;;4.60;;
6306;SDS011;3186;54.062;9.962;2023-03-03T20:31:35;30.57;;;5.43;;
6306;SDS011;3186;54.062;9.962;2023-03-03T20:37:38;29.93;;;5.83;;
6306;SDS011;3186;54.062;9.962;2023-03-03T20:46:06;32.83;;;5.27;;
6306;SDS011;3186;54.062;9.962;2023-03-03T20:51:47;31.67;;;4.67;;
6306;SDS011;3186;54.062;9.962;2023-03-03T21:00:12;28.87;;;5.63;;
6306;SDS011;3186;54.062;9.962;2023-03-03T21:05:54;30.80;;;5.60;;
6306;SDS011;3186;54.062;9.962;2023-03-03T21:08:42;20.30;;;4.50;;
6306;SDS011;3186;54.062;9.962;2023-03-03T21:11:13;21.57;;;4.73;;
6306;SDS011;3186;54.062;9.962;2023-03-03T21:13:48;22.03;;;5.80;;
6306;SDS011;3186;54.062;9.962;2023-03-03T21:19:01;26.57;;;5.20;;
6306;SDS011;3186;54.062;9.962;2023-03-03T21:21:30;21.97;;;4.37;;
6306;SDS011;3186;54.062;9.962;2023-03-03T21:23:58;28.57;;;4.97;;
6306;SDS011;3186;54.062;9.962;2023-03-03T21:26:42;17.23;;;3.77;;
6306;SDS011;3186;54.062;9.962;2023-03-03T21:31:46;25.43;;;4.20;;
6306;SDS011;3186;54.062;9.962;2023-03-03T21:36:58;25.87;;;4.43;;
6306;SDS011;3186;54.062;9.962;2023-03-03T21:42:06;21.93;;;4.20;;
6306;SDS011;3186;54.062;9.962;2023-03-03T21:47:10;24.20;;;4.00;;
6306;SDS011;3186;54.062;9.962;2023-03-03T21:49:39;22.50;;;3.90;;
6306;SDS011;3186;54.062;9.962;2023-03-03T21:52:06;23.90;;;3.67;;
6306;SDS011;3186;54.062;9.962;2023-03-03T21:54:32;23.97;;;4.17;;
6306;SDS011;3186;54.062;9.962;2023-03-03T21:56:58;19.63;;;3.87;;
6306;SDS011;3186;54.062;9.962;2023-03-03T21:59:24;23.53;;;4.23;;
6306;SDS011;3186;54.062;9.962;2023-03-03T22:01:50;28.97;;;4.57;;
6306;SDS011;3186;54.062;9.962;2023-03-03T22:04:16;17.93;;;3.67;;
6306;SDS011;3186;54.062;9.962;2023-03-03T22:06:41;21.97;;;3.90;;
6306;SDS011;3186;54.062;9.962;2023-03-03T22:09:08;12.53;;;2.93;;
6306;SDS011;3186;54.062;9.962;2023-03-03T22:11:33;22.97;;;4.13;;
6306;SDS011;3186;54.062;9.962;2023-03-03T22:13:59;24.10;;;4.70;;
6306;SDS011;3186;54.062;9.962;2023-03-03T22:16:25;20.47;;;3.40;;
6306;SDS011;3186;54.062;9.962;2023-03-03T22:18:51;21.90;;;4.33;;
6306;SDS011;3186;54.062;9.962;2023-03-03T22:21:17;19.27;;;3.23;;
6306;SDS011;3186;54.062;9.962;2023-03-03T22:23:43;22.37;;;3.87;;
6306;SDS011;3186;54.062;9.962;2023-03-03T22:26:09;17.77;;;4.73;;
6306;SDS011;3186;54.062;9.962;2023-03-03T22:28:34;20.60;;;4.00;;
6306;SDS011;3186;54.062;9.962;2023-03-03T22:31:00;19.83;;;4.07;;
6306;SDS011;3186;54.062;9.962;2023-03-03T22:33:27;29.17;;;5.40;;
6306;SDS011;3186;54.062;9.962;2023-03-03T22:35:52;17.10;;;4.20;;
6306;SDS011;3186;54.062;9.962;2023-03-03T22:38:19;15.37;;;4.27;;
6306;SDS011;3186;54.062;9.962;2023-03-03T22:40:45;17.33;;;4.67;;
6306;SDS011;3186;54.062;9.962;2023-03-03T22:43:11;16.90;;;3.77;;
6306;SDS011;3186;54.062;9.962;2023-03-03T22:45:38;13.60;;;3.20;;
6306;SDS011;3186;54.062;9.962;2023-03-03T22:48:05;15.80;;;2.93;;
6306;SDS011;3186;54.062;9.962;2023-03-03T22:50:31;18.13;;;3.50;;
6306;SDS011;3186;54.062;9.962;2023-03-03T22:52:57;11.57;;;2.73;;
6306;SDS011;3186;54.062;9.962;2023-03-03T22:55:23;14.47;;;2.70;;
6306;SDS011;3186;54.062;9.962;2023-03-03T22:57:48;16.40;;;3.70;;
6306;SDS011;3186;54.062;9.962;2023-03-03T23:00:14;13.80;;;3.77;;
6306;SDS011;3186;54.062;9.962;2023-03-03T23:02:40;13.83;;;3.03;;
6306;SDS011;3186;54.062;9.962;2023-03-03T23:05:06;12.53;;;2.90;;
6306;SDS011;3186;54.062;9.962;2023-03-03T23:07:35;11.67;;;2.70;;